sensor_id;sensor_type;location;lat;lon;timestamp;P1;durP1;ratioP1;P2;durP2;ratioP2
11054;SDS011;5580;50.106;8.702;2023-06-05T00:01:12;4.43;;;3.07;;
11054;SDS011;5580;50.106;8.702;2023-06-05T00:03:38;6.30;;;3.17;;
11054;SDS011;5580;50.106;8.702;2023-06-05T00:06:04;5.67;;;3.30;;
11054;SDS011;5580;50.106;8.702;2023-06-05T00:08:30;3.27;;;2.53;;
11054;SDS011;5580;50.106;8.702;2023-06-05T00:10:56;7.00;;;3.20;;
11054;SDS011;5580;50.106;8.702;2023-06-05T00:13:21;6.63;;;3.83;;
11054;SDS011;5580;50.106;8.702;2023-06-05T00:15:47;7.63;;;3.53;;
11054;SDS011;5580;50.106;8.702;2023-06-05T00:18:12;4.90;;;3.50;;
11054;SDS011;5580;50.106;8.702;2023-06-05T00:20:39;5.13;;;3.27;;
11054;SDS011;5580;50.106;8.702;2023-06-05T00:23:05;3.97;;;3.20;;
11054;SDS011;5580;50.106;8.702;2023-06-05T00:25:31;3.87;;;2.97;;
11054;SDS011;5580;50.106;8.702;2023-06-05T00:27:56;4.50;;;2.80;;
11054;SDS011;5580;50.106;8.702;2023-06-05T00:30:22;4.93;;;3.33;;
11054;SDS011;5580;50.106;8.702;2023-06-05T00:32:47;4.37;;;3.20;;
11054;SDS011;5580;50.106;8.702;2023-06-05T00:35:13;3.97;;;3.30;;
11054;SDS011;5580;50.106;8.702;2023-06-05T00:37:39;5.77;;;3.30;;
11054;SDS011;5580;50.106;8.702;2023-06-05T00:40:04;3.40;;;3.10;;
11054;SDS011;5580;50.106;8.702;2023-06-05T00:42:31;4.87;;;3.30;;
11054;SDS011;5580;50.106;8.702;2023-06-05T00:44:57;4.77;;;3.37;;
11054;SDS011;5580;50.106;8.702;2023-06-05T00:47:23;4.57;;;3.53;;
11054;SDS011;5580;50.106;8.702;2023-06-05T00:49:49;5.97;;;3.30;;
11054;SDS011;5580;50.106;8.702;2023-06-05T00:52:15;4.37;;;3.07;;
11054;SDS011;5580;50.106;8.702;2023-06-05T00:54:41;4.70;;;3.00;;
11054;SDS011;5580;50.106;8.702;2023-06-05T00:57:08;4.40;;;3.20;;
11054;SDS011;5580;50.106;8.702;2023-06-05T00:59:33;5.03;;;3.37;;
11054;SDS011;5580;50.106;8.702;2023-06-05T01:02:01;5.27;;;3.10;;
11054;SDS011;5580;50.106;8.702;2023-06-05T01:04:27;5.57;;;3.50;;
11054;SDS011;5580;50.106;8.702;2023-06-05T01:06:54;5.23;;;3.50;;
11054;SDS011;5580;50.106;8.702;2023-06-05T01:09:22;4.47;;;3.00;;
11054;SDS011;5580;50.106;8.702;2023-06-05T01:11:56;4.27;;;3.30;;
11054;SDS011;5580;50.106;8.702;2023-06-05T01:14:27;5.80;;;3.10;;
11054;SDS011;5580;50.106;8.702;2023-06-05T01:16:55;5.37;;;3.23;;
11054;SDS011;5580;50.106;8.702;2023-06-05T01:19:25;4.80;;;3.40;;
11054;SDS011;5580;50.106;8.702;2023-06-05T01:21:56;4.40;;;2.93;;
11054;SDS011;5580;50.106;8.702;2023-06-05T01:24:22;4.73;;;2.67;;
11054;SDS011;5580;50.106;8.702;2023-06-05T01:26:52;4.47;;;3.00;;
11054;SDS011;5580;50.106;8.702;2023-06-05T01:29:39;5.50;;;2.90;;
11054;SDS011;5580;50.106;8.702;2023-06-05T01:32:15;4.23;;;3.00;;
11054;SDS011;5580;50.106;8.702;2023-06-05T01:34:46;5.23;;;3.50;;
11054;SDS011;5580;50.106;8.702;2023-06-05T01:37:13;4.27;;;3.33;;
11054;SDS011;5580;50.106;8.702;2023-06-05T01:39:43;6.20;;;3.50;;
11054;SDS011;5580;50.106;8.702;2023-06-05T01:42:12;3.30;;;3.00;;
11054;SDS011;5580;50.106;8.702;2023-06-05T01:44:39;4.13;;;2.93;;
11054;SDS011;5580;50.106;8.702;2023-06-05T01:47:06;8.13;;;3.30;;
11054;SDS011;5580;50.106;8.702;2023-06-05T01:49:33;7.90;;;3.07;;
11054;SDS011;5580;50.106;8.702;2023-06-05T01:51:59;4.27;;;3.10;;
11054;SDS011;5580;50.106;8.702;2023-06-05T01:54:24;5.30;;;3.10;;
11054;SDS011;5580;50.106;8.702;2023-06-05T01:56:51;4.27;;;2.93;;
11054;SDS011;5580;50.106;8.702;2023-06-05T01:59:18;3.53;;;3.20;;
11054;SDS011;5580;50.106;8.702;2023-06-05T02:01:44;5.07;;;3.00;;
11054;SDS011;5580;50.106;8.702;2023-06-05T02:04:10;5.87;;;3.33;;
11054;SDS011;5580;50.106;8.702;2023-06-05T02:06:35;4.40;;;3.00;;
11054;SDS011;5580;50.106;8.702;2023-06-05T02:09:06;5.00;;;2.93;;
11054;SDS011;5580;50.106;8.702;2023-06-05T02:11:34;4.67;;;3.27;;
11054;SDS011;5580;50.106;8.702;2023-06-05T02:14:02;4.10;;;3.20;;
11054;SDS011;5580;50.106;8.702;2023-06-05T02:16:37;3.27;;;2.97;;
11054;SDS011;5580;50.106;8.702;2023-06-05T02:19:03;7.33;;;3.27;;
11054;SDS011;5580;50.106;8.702;2023-06-05T02:21:32;3.60;;;3.30;;
11054;SDS011;5580;50.106;8.702;2023-06-05T02:24:07;4.13;;;3.03;;
11054;SDS011;5580;50.106;8.702;2023-06-05T02:26:32;5.50;;;3.40;;
11054;SDS011;5580;50.106;8.702;2023-06-05T02:28:58;6.80;;;3.37;;
11054;SDS011;5580;50.106;8.702;2023-06-05T02:31:25;5.50;;;3.10;;
11054;SDS011;5580;50.106;8.702;2023-06-05T02:33:54;3.23;;;2.83;;
11054;SDS011;5580;50.106;8.702;2023-06-05T02:36:20;3.70;;;3.33;;
11054;SDS011;5580;50.106;8.702;2023-06-05T02:38:47;5.50;;;3.33;;
11054;SDS011;5580;50.106;8.702;2023-06-05T02:41:14;5.13;;;3.30;;
11054;SDS011;5580;50.106;8.702;2023-06-05T02:43:41;3.87;;;3.20;;
11054;SDS011;5580;50.106;8.702;2023-06-05T02:46:07;5.73;;;3.50;;
11054;SDS011;5580;50.106;8.702;2023-06-05T02:48:32;5.17;;;3.13;;
11054;SDS011;5580;50.106;8.702;2023-06-05T02:50:58;5.47;;;3.30;;
11054;SDS011;5580;50.106;8.702;2023-06-05T02:53:23;5.97;;;3.37;;
11054;SDS011;5580;50.106;8.702;2023-06-05T02:55:49;5.23;;;3.03;;
11054;SDS011;5580;50.106;8.702;2023-06-05T02:58:14;4.47;;;3.10;;
11054;SDS011;5580;50.106;8.702;2023-06-05T03:00:42;5.53;;;3.30;;
11054;SDS011;5580;50.106;8.702;2023-06-05T03:03:09;5.23;;;3.20;;
11054;SDS011;5580;50.106;8.702;2023-06-05T03:05:36;5.67;;;2.90;;
11054;SDS011;5580;50.106;8.702;2023-06-05T03:08:01;5.80;;;3.27;;
11054;SDS011;5580;50.106;8.702;2023-06-05T03:10:28;5.10;;;3.20;;
11054;SDS011;5580;50.106;8.702;2023-06-05T03:12:54;3.63;;;3.20;;
11054;SDS011;5580;50.106;8.702;2023-06-05T03:15:19;5.30;;;3.17;;
11054;SDS011;5580;50.106;8.702;2023-06-05T03:17:46;5.43;;;3.10;;
11054;SDS011;5580;50.106;8.702;2023-06-05T03:20:12;5.57;;;3.37;;
11054;SDS011;5580;50.106;8.702;2023-06-05T03:22:38;6.07;;;3.50;;
11054;SDS011;5580;50.106;8.702;2023-06-05T03:25:04;3.47;;;3.17;;
11054;SDS011;5580;50.106;8.702;2023-06-05T03:27:30;5.20;;;3.37;;
11054;SDS011;5580;50.106;8.702;2023-06-05T03:29:56;3.83;;;3.37;;
11054;SDS011;5580;50.106;8.702;2023-06-05T03:32:23;4.13;;;3.40;;
11054;SDS011;5580;50.106;8.702;2023-06-05T03:34:49;4.40;;;3.13;;
11054;SDS011;5580;50.106;8.702;2023-06-05T03:37:15;5.00;;;2.90;;
11054;SDS011;5580;50.106;8.702;2023-06-05T03:39:41;6.23;;;3.30;;
11054;SDS011;5580;50.106;8.702;2023-06-05T03:42:06;6.90;;;3.20;;
11054;SDS011;5580;50.106;8.702;2023-06-05T03:44:34;4.30;;;3.17;;
11054;SDS011;5580;50.106;8.702;2023-06-05T03:47:00;5.40;;;3.50;;
11054;SDS011;5580;50.106;8.702;2023-06-05T03:49:25;7.57;;;3.40;;
11054;SDS011;5580;50.106;8.702;2023-06-05T03:51:53;3.80;;;3.20;;
11054;SDS011;5580;50.106;8.702;2023-06-05T03:54:27;6.57;;;3.77;;
11054;SDS011;5580;50.106;8.702;2023-06-05T03:56:53;4.97;;;3.23;;
11054;SDS011;5580;50.106;8.702;2023-06-05T03:59:21;6.97;;;3.37;;
11054;SDS011;5580;50.106;8.702;2023-06-05T04:01:49;4.07;;;3.20;;
11054;SDS011;5580;50.106;8.702;2023-06-05T04:04:15;6.53;;;3.60;;
11054;SDS011;5580;50.106;8.702;2023-06-05T04:06:40;5.60;;;3.60;;
11054;SDS011;5580;50.106;8.702;2023-06-05T04:09:06;3.60;;;3.30;;
11054;SDS011;5580;50.106;8.702;2023-06-05T04:11:40;5.57;;;3.20;;
11054;SDS011;5580;50.106;8.702;2023-06-05T04:14:07;5.87;;;3.40;;
11054;SDS011;5580;50.106;8.702;2023-06-05T04:16:34;3.90;;;3.43;;
11054;SDS011;5580;50.106;8.702;2023-06-05T04:19:03;3.70;;;3.40;;
11054;SDS011;5580;50.106;8.702;2023-06-05T04:21:34;4.87;;;3.40;;
11054;SDS011;5580;50.106;8.702;2023-06-05T04:24:01;8.17;;;3.47;;
11054;SDS011;5580;50.106;8.702;2023-06-05T04:26:28;9.60;;;3.77;;
11054;SDS011;5580;50.106;8.702;2023-06-05T04:28:54;7.73;;;3.37;;
11054;SDS011;5580;50.106;8.702;2023-06-05T04:31:21;6.27;;;3.60;;
11054;SDS011;5580;50.106;8.702;2023-06-05T04:33:50;5.83;;;3.60;;
11054;SDS011;5580;50.106;8.702;2023-06-05T04:36:15;10.17;;;3.63;;
11054;SDS011;5580;50.106;8.702;2023-06-05T04:38:43;9.10;;;3.77;;
11054;SDS011;5580;50.106;8.702;2023-06-05T04:41:09;3.97;;;3.27;;
11054;SDS011;5580;50.106;8.702;2023-06-05T04:43:36;10.27;;;3.60;;
11054;SDS011;5580;50.106;8.702;2023-06-05T04:46:01;5.90;;;3.43;;
11054;SDS011;5580;50.106;8.702;2023-06-05T04:48:28;4.50;;;3.50;;
11054;SDS011;5580;50.106;8.702;2023-06-05T04:50:53;9.23;;;3.73;;
11054;SDS011;5580;50.106;8.702;2023-06-05T04:53:21;9.17;;;4.00;;
11054;SDS011;5580;50.106;8.702;2023-06-05T04:55:47;6.13;;;3.80;;
11054;SDS011;5580;50.106;8.702;2023-06-05T04:58:13;5.50;;;3.40;;
11054;SDS011;5580;50.106;8.702;2023-06-05T05:00:41;6.47;;;3.63;;
11054;SDS011;5580;50.106;8.702;2023-06-05T05:03:09;7.43;;;3.63;;
11054;SDS011;5580;50.106;8.702;2023-06-05T05:05:38;11.30;;;3.73;;
11054;SDS011;5580;50.106;8.702;2023-06-05T05:08:04;5.53;;;3.37;;
11054;SDS011;5580;50.106;8.702;2023-06-05T05:10:30;7.93;;;3.67;;
11054;SDS011;5580;50.106;8.702;2023-06-05T05:12:56;10.00;;;3.80;;
11054;SDS011;5580;50.106;8.702;2023-06-05T05:15:21;8.20;;;3.60;;
11054;SDS011;5580;50.106;8.702;2023-06-05T05:17:47;7.67;;;3.87;;
11054;SDS011;5580;50.106;8.702;2023-06-05T05:20:14;8.80;;;4.10;;
11054;SDS011;5580;50.106;8.702;2023-06-05T05:22:40;7.57;;;3.70;;
11054;SDS011;5580;50.106;8.702;2023-06-05T05:25:05;9.00;;;3.80;;
11054;SDS011;5580;50.106;8.702;2023-06-05T05:27:31;5.97;;;3.60;;
11054;SDS011;5580;50.106;8.702;2023-06-05T05:29:57;7.73;;;3.70;;
11054;SDS011;5580;50.106;8.702;2023-06-05T05:32:22;13.47;;;4.10;;
11054;SDS011;5580;50.106;8.702;2023-06-05T05:34:48;6.13;;;3.60;;
11054;SDS011;5580;50.106;8.702;2023-06-05T05:37:15;8.37;;;3.90;;
11054;SDS011;5580;50.106;8.702;2023-06-05T05:39:41;5.57;;;3.67;;
11054;SDS011;5580;50.106;8.702;2023-06-05T05:42:07;8.57;;;3.67;;
11054;SDS011;5580;50.106;8.702;2023-06-05T05:44:32;5.60;;;3.47;;
11054;SDS011;5580;50.106;8.702;2023-06-05T05:46:58;10.13;;;3.43;;
11054;SDS011;5580;50.106;8.702;2023-06-05T05:49:23;15.00;;;3.87;;
11054;SDS011;5580;50.106;8.702;2023-06-05T05:51:50;9.80;;;3.57;;
11054;SDS011;5580;50.106;8.702;2023-06-05T05:54:15;6.57;;;3.70;;
11054;SDS011;5580;50.106;8.702;2023-06-05T05:56:41;10.27;;;3.93;;
11054;SDS011;5580;50.106;8.702;2023-06-05T05:59:07;5.30;;;3.37;;
11054;SDS011;5580;50.106;8.702;2023-06-05T06:01:32;12.80;;;4.13;;
11054;SDS011;5580;50.106;8.702;2023-06-05T06:03:58;5.83;;;3.70;;
11054;SDS011;5580;50.106;8.702;2023-06-05T06:06:24;8.37;;;3.97;;
11054;SDS011;5580;50.106;8.702;2023-06-05T06:08:49;9.27;;;3.63;;
11054;SDS011;5580;50.106;8.702;2023-06-05T06:11:15;7.43;;;4.10;;
11054;SDS011;5580;50.106;8.702;2023-06-05T06:13:41;9.07;;;3.73;;
11054;SDS011;5580;50.106;8.702;2023-06-05T06:16:08;8.10;;;3.80;;
11054;SDS011;5580;50.106;8.702;2023-06-05T06:18:34;7.67;;;3.67;;
11054;SDS011;5580;50.106;8.702;2023-06-05T06:21:00;10.80;;;3.80;;
11054;SDS011;5580;50.106;8.702;2023-06-05T06:23:26;6.37;;;3.70;;
11054;SDS011;5580;50.106;8.702;2023-06-05T06:25:51;11.53;;;3.73;;
11054;SDS011;5580;50.106;8.702;2023-06-05T06:28:17;5.73;;;3.60;;
11054;SDS011;5580;50.106;8.702;2023-06-05T06:30:44;8.73;;;4.00;;
11054;SDS011;5580;50.106;8.702;2023-06-05T06:33:10;6.17;;;3.70;;
11054;SDS011;5580;50.106;8.702;2023-06-05T06:35:35;6.83;;;3.50;;
11054;SDS011;5580;50.106;8.702;2023-06-05T06:38:01;6.23;;;3.50;;
11054;SDS011;5580;50.106;8.702;2023-06-05T06:40:28;11.27;;;3.93;;
11054;SDS011;5580;50.106;8.702;2023-06-05T06:42:54;7.83;;;3.53;;
11054;SDS011;5580;50.106;8.702;2023-06-05T06:45:20;7.97;;;3.40;;
11054;SDS011;5580;50.106;8.702;2023-06-05T06:47:46;7.07;;;3.53;;
11054;SDS011;5580;50.106;8.702;2023-06-05T06:50:12;9.17;;;3.70;;
11054;SDS011;5580;50.106;8.702;2023-06-05T06:52:38;8.73;;;3.63;;
11054;SDS011;5580;50.106;8.702;2023-06-05T06:55:04;9.17;;;3.60;;
11054;SDS011;5580;50.106;8.702;2023-06-05T06:57:31;4.57;;;3.57;;
11054;SDS011;5580;50.106;8.702;2023-06-05T06:59:57;5.07;;;3.33;;
11054;SDS011;5580;50.106;8.702;2023-06-05T07:02:23;5.43;;;3.50;;
11054;SDS011;5580;50.106;8.702;2023-06-05T07:04:49;6.07;;;3.67;;
11054;SDS011;5580;50.106;8.702;2023-06-05T07:07:15;7.47;;;3.70;;
11054;SDS011;5580;50.106;8.702;2023-06-05T07:09:42;4.97;;;3.33;;
11054;SDS011;5580;50.106;8.702;2023-06-05T07:12:10;7.70;;;3.80;;
11054;SDS011;5580;50.106;8.702;2023-06-05T07:14:37;7.40;;;3.63;;
11054;SDS011;5580;50.106;8.702;2023-06-05T07:17:03;6.33;;;3.70;;
11054;SDS011;5580;50.106;8.702;2023-06-05T07:19:32;6.07;;;3.80;;
11054;SDS011;5580;50.106;8.702;2023-06-05T07:21:59;10.37;;;3.70;;
11054;SDS011;5580;50.106;8.702;2023-06-05T07:24:27;6.57;;;3.40;;
11054;SDS011;5580;50.106;8.702;2023-06-05T07:26:54;5.40;;;3.53;;
11054;SDS011;5580;50.106;8.702;2023-06-05T07:29:21;7.80;;;3.37;;
11054;SDS011;5580;50.106;8.702;2023-06-05T07:31:48;5.07;;;3.50;;
11054;SDS011;5580;50.106;8.702;2023-06-05T07:34:18;6.40;;;3.70;;
11054;SDS011;5580;50.106;8.702;2023-06-05T07:36:45;6.67;;;3.40;;
11054;SDS011;5580;50.106;8.702;2023-06-05T07:39:11;10.00;;;3.37;;
11054;SDS011;5580;50.106;8.702;2023-06-05T07:41:38;6.70;;;4.00;;
11054;SDS011;5580;50.106;8.702;2023-06-05T07:44:05;5.10;;;3.37;;
11054;SDS011;5580;50.106;8.702;2023-06-05T07:46:44;10.60;;;3.77;;
11054;SDS011;5580;50.106;8.702;2023-06-05T07:49:10;7.13;;;3.50;;
11054;SDS011;5580;50.106;8.702;2023-06-05T07:51:36;7.63;;;3.90;;
11054;SDS011;5580;50.106;8.702;2023-06-05T07:54:06;6.63;;;3.73;;
11054;SDS011;5580;50.106;8.702;2023-06-05T07:56:33;7.87;;;3.80;;
11054;SDS011;5580;50.106;8.702;2023-06-05T07:58:59;6.82;;;3.70;;
11054;SDS011;5580;50.106;8.702;2023-06-05T08:01:27;6.15;;;3.70;;
11054;SDS011;5580;50.106;8.702;2023-06-05T08:03:56;6.43;;;3.70;;
11054;SDS011;5580;50.106;8.702;2023-06-05T08:06:23;7.45;;;3.60;;
11054;SDS011;5580;50.106;8.702;2023-06-05T08:08:49;5.45;;;3.45;;
11054;SDS011;5580;50.106;8.702;2023-06-05T08:11:15;10.93;;;3.60;;
11054;SDS011;5580;50.106;8.702;2023-06-05T08:13:41;6.30;;;3.83;;
11054;SDS011;5580;50.106;8.702;2023-06-05T08:16:06;3.80;;;3.10;;
11054;SDS011;5580;50.106;8.702;2023-06-05T08:18:32;7.57;;;3.80;;
11054;SDS011;5580;50.106;8.702;2023-06-05T08:20:58;4.35;;;3.58;;
11054;SDS011;5580;50.106;8.702;2023-06-05T08:23:23;9.80;;;3.88;;
11054;SDS011;5580;50.106;8.702;2023-06-05T08:25:49;6.35;;;3.80;;
11054;SDS011;5580;50.106;8.702;2023-06-05T08:28:15;8.52;;;3.50;;
11054;SDS011;5580;50.106;8.702;2023-06-05T08:30:41;5.05;;;3.83;;
11054;SDS011;5580;50.106;8.702;2023-06-05T08:33:07;4.10;;;3.70;;
11054;SDS011;5580;50.106;8.702;2023-06-05T08:35:33;5.80;;;3.70;;
11054;SDS011;5580;50.106;8.702;2023-06-05T08:37:58;5.67;;;3.60;;
11054;SDS011;5580;50.106;8.702;2023-06-05T08:40:26;8.87;;;3.70;;
11054;SDS011;5580;50.106;8.702;2023-06-05T08:42:53;4.40;;;3.80;;
11054;SDS011;5580;50.106;8.702;2023-06-05T08:45:19;6.80;;;3.50;;
11054;SDS011;5580;50.106;8.702;2023-06-05T08:47:45;7.90;;;3.67;;
11054;SDS011;5580;50.106;8.702;2023-06-05T08:50:16;5.23;;;3.40;;
11054;SDS011;5580;50.106;8.702;2023-06-05T08:52:42;7.30;;;3.53;;
11054;SDS011;5580;50.106;8.702;2023-06-05T08:55:10;5.37;;;3.93;;
11054;SDS011;5580;50.106;8.702;2023-06-05T08:57:37;6.13;;;3.80;;
11054;SDS011;5580;50.106;8.702;2023-06-05T09:00:05;4.40;;;3.37;;
11054;SDS011;5580;50.106;8.702;2023-06-05T09:02:38;5.70;;;3.70;;
11054;SDS011;5580;50.106;8.702;2023-06-05T09:05:11;8.67;;;3.73;;
11054;SDS011;5580;50.106;8.702;2023-06-05T09:07:37;6.93;;;3.63;;
11054;SDS011;5580;50.106;8.702;2023-06-05T09:10:04;6.63;;;4.10;;
11054;SDS011;5580;50.106;8.702;2023-06-05T09:12:30;5.87;;;3.90;;
11054;SDS011;5580;50.106;8.702;2023-06-05T09:15:00;5.53;;;3.60;;
11054;SDS011;5580;50.106;8.702;2023-06-05T09:20:33;6.23;;;3.50;;
11054;SDS011;5580;50.106;8.702;2023-06-05T09:23:00;5.63;;;3.73;;
11054;SDS011;5580;50.106;8.702;2023-06-05T09:25:26;4.40;;;4.00;;
11054;SDS011;5580;50.106;8.702;2023-06-05T09:28:14;5.90;;;3.90;;
11054;SDS011;5580;50.106;8.702;2023-06-05T09:30:55;6.70;;;3.50;;
11054;SDS011;5580;50.106;8.702;2023-06-05T09:33:26;8.57;;;3.90;;
11054;SDS011;5580;50.106;8.702;2023-06-05T09:36:12;6.13;;;3.93;;
11054;SDS011;5580;50.106;8.702;2023-06-05T09:38:39;6.53;;;3.63;;
11054;SDS011;5580;50.106;8.702;2023-06-05T09:41:06;5.07;;;3.80;;
11054;SDS011;5580;50.106;8.702;2023-06-05T09:43:33;6.00;;;3.60;;
11054;SDS011;5580;50.106;8.702;2023-06-05T09:46:09;6.53;;;3.80;;
11054;SDS011;5580;50.106;8.702;2023-06-05T09:48:36;5.80;;;3.77;;
11054;SDS011;5580;50.106;8.702;2023-06-05T09:51:09;6.10;;;3.97;;
11054;SDS011;5580;50.106;8.702;2023-06-05T09:53:47;10.47;;;4.00;;
11054;SDS011;5580;50.106;8.702;2023-06-05T09:56:14;10.47;;;4.30;;
11054;SDS011;5580;50.106;8.702;2023-06-05T09:58:48;9.83;;;3.93;;
11054;SDS011;5580;50.106;8.702;2023-06-05T10:01:16;7.03;;;3.93;;
11054;SDS011;5580;50.106;8.702;2023-06-05T10:03:44;7.10;;;3.80;;
11054;SDS011;5580;50.106;8.702;2023-06-05T10:06:15;7.07;;;4.00;;
11054;SDS011;5580;50.106;8.702;2023-06-05T10:08:48;6.57;;;3.90;;
11054;SDS011;5580;50.106;8.702;2023-06-05T10:11:15;5.23;;;3.90;;
11054;SDS011;5580;50.106;8.702;2023-06-05T10:13:42;7.93;;;4.03;;
11054;SDS011;5580;50.106;8.702;2023-06-05T10:16:08;6.17;;;3.73;;
11054;SDS011;5580;50.106;8.702;2023-06-05T10:18:34;8.17;;;3.93;;
11054;SDS011;5580;50.106;8.702;2023-06-05T10:21:00;9.60;;;3.83;;
11054;SDS011;5580;50.106;8.702;2023-06-05T10:23:26;5.63;;;3.70;;
11054;SDS011;5580;50.106;8.702;2023-06-05T10:25:53;6.90;;;3.87;;
11054;SDS011;5580;50.106;8.702;2023-06-05T10:28:40;5.03;;;3.80;;
11054;SDS011;5580;50.106;8.702;2023-06-05T10:31:30;6.40;;;3.70;;
11054;SDS011;5580;50.106;8.702;2023-06-05T10:39:57;4.10;;;3.70;;
11054;SDS011;5580;50.106;8.702;2023-06-05T10:42:24;5.57;;;3.87;;
11054;SDS011;5580;50.106;8.702;2023-06-05T10:44:50;5.73;;;3.63;;
11054;SDS011;5580;50.106;8.702;2023-06-05T10:52:42;9.47;;;4.17;;
11054;SDS011;5580;50.106;8.702;2023-06-05T10:55:09;9.03;;;4.00;;
11054;SDS011;5580;50.106;8.702;2023-06-05T11:00:35;5.63;;;3.70;;
11054;SDS011;5580;50.106;8.702;2023-06-05T11:03:02;4.67;;;3.70;;
11054;SDS011;5580;50.106;8.702;2023-06-05T11:05:28;5.90;;;3.90;;
11054;SDS011;5580;50.106;8.702;2023-06-05T11:08:13;8.67;;;3.87;;
11054;SDS011;5580;50.106;8.702;2023-06-05T11:13:50;7.77;;;3.93;;
11054;SDS011;5580;50.106;8.702;2023-06-05T11:16:32;7.13;;;3.63;;
11054;SDS011;5580;50.106;8.702;2023-06-05T11:19:34;4.70;;;3.60;;
11054;SDS011;5580;50.106;8.702;2023-06-05T11:22:06;8.20;;;4.13;;
11054;SDS011;5580;50.106;8.702;2023-06-05T11:24:35;12.83;;;4.50;;
11054;SDS011;5580;50.106;8.702;2023-06-05T11:27:01;8.63;;;3.77;;
11054;SDS011;5580;50.106;8.702;2023-06-05T11:29:28;4.40;;;4.00;;
11054;SDS011;5580;50.106;8.702;2023-06-05T11:31:54;4.57;;;3.87;;
11054;SDS011;5580;50.106;8.702;2023-06-05T11:34:20;6.33;;;3.90;;
11054;SDS011;5580;50.106;8.702;2023-06-05T11:36:46;5.60;;;3.90;;
11054;SDS011;5580;50.106;8.702;2023-06-05T11:39:12;5.60;;;3.70;;
11054;SDS011;5580;50.106;8.702;2023-06-05T11:41:48;5.63;;;3.63;;
11054;SDS011;5580;50.106;8.702;2023-06-05T11:44:16;6.97;;;3.80;;
11054;SDS011;5580;50.106;8.702;2023-06-05T11:46:55;4.43;;;3.60;;
11054;SDS011;5580;50.106;8.702;2023-06-05T11:49:24;6.13;;;3.93;;
11054;SDS011;5580;50.106;8.702;2023-06-05T11:51:52;8.03;;;4.10;;
11054;SDS011;5580;50.106;8.702;2023-06-05T11:54:25;5.87;;;3.57;;
11054;SDS011;5580;50.106;8.702;2023-06-05T11:56:58;6.73;;;4.13;;
11054;SDS011;5580;50.106;8.702;2023-06-05T11:59:34;5.30;;;3.60;;
11054;SDS011;5580;50.106;8.702;2023-06-05T12:02:00;5.50;;;3.40;;
11054;SDS011;5580;50.106;8.702;2023-06-05T12:04:28;7.10;;;4.30;;
11054;SDS011;5580;50.106;8.702;2023-06-05T12:06:54;5.23;;;3.77;;
11054;SDS011;5580;50.106;8.702;2023-06-05T12:09:20;4.73;;;3.60;;
11054;SDS011;5580;50.106;8.702;2023-06-05T12:11:46;7.63;;;3.73;;
11054;SDS011;5580;50.106;8.702;2023-06-05T12:14:13;7.50;;;4.10;;
11054;SDS011;5580;50.106;8.702;2023-06-05T12:16:56;4.97;;;3.60;;
11054;SDS011;5580;50.106;8.702;2023-06-05T12:19:22;4.17;;;3.70;;
11054;SDS011;5580;50.106;8.702;2023-06-05T12:21:48;6.97;;;4.00;;
11054;SDS011;5580;50.106;8.702;2023-06-05T12:24:16;6.30;;;3.60;;
11054;SDS011;5580;50.106;8.702;2023-06-05T12:26:54;7.40;;;3.90;;
11054;SDS011;5580;50.106;8.702;2023-06-05T12:29:29;7.17;;;3.80;;
11054;SDS011;5580;50.106;8.702;2023-06-05T12:32:21;6.27;;;3.90;;
11054;SDS011;5580;50.106;8.702;2023-06-05T12:34:48;5.10;;;3.67;;
11054;SDS011;5580;50.106;8.702;2023-06-05T12:37:26;10.20;;;3.97;;
11054;SDS011;5580;50.106;8.702;2023-06-05T12:39:59;6.67;;;4.00;;
11054;SDS011;5580;50.106;8.702;2023-06-05T12:42:26;7.53;;;4.07;;
11054;SDS011;5580;50.106;8.702;2023-06-05T12:44:53;5.90;;;4.10;;
11054;SDS011;5580;50.106;8.702;2023-06-05T12:47:19;5.90;;;3.90;;
11054;SDS011;5580;50.106;8.702;2023-06-05T12:49:45;6.43;;;3.90;;
11054;SDS011;5580;50.106;8.702;2023-06-05T12:52:11;8.00;;;4.20;;
11054;SDS011;5580;50.106;8.702;2023-06-05T12:54:37;8.80;;;3.80;;
11054;SDS011;5580;50.106;8.702;2023-06-05T12:57:03;6.60;;;4.03;;
11054;SDS011;5580;50.106;8.702;2023-06-05T12:59:33;5.73;;;4.07;;
11054;SDS011;5580;50.106;8.702;2023-06-05T13:01:58;5.93;;;4.00;;
11054;SDS011;5580;50.106;8.702;2023-06-05T13:04:24;7.60;;;4.00;;
11054;SDS011;5580;50.106;8.702;2023-06-05T13:06:50;5.47;;;4.07;;
11054;SDS011;5580;50.106;8.702;2023-06-05T13:09:16;9.43;;;4.10;;
11054;SDS011;5580;50.106;8.702;2023-06-05T13:11:41;6.43;;;3.80;;
11054;SDS011;5580;50.106;8.702;2023-06-05T13:14:07;8.60;;;4.23;;
11054;SDS011;5580;50.106;8.702;2023-06-05T13:16:33;7.30;;;4.40;;
11054;SDS011;5580;50.106;8.702;2023-06-05T13:18:58;7.60;;;4.20;;
11054;SDS011;5580;50.106;8.702;2023-06-05T13:21:24;4.83;;;3.90;;
11054;SDS011;5580;50.106;8.702;2023-06-05T13:23:51;5.63;;;3.80;;
11054;SDS011;5580;50.106;8.702;2023-06-05T13:26:16;7.43;;;4.20;;
11054;SDS011;5580;50.106;8.702;2023-06-05T13:28:43;8.00;;;3.90;;
11054;SDS011;5580;50.106;8.702;2023-06-05T13:31:11;6.73;;;4.20;;
11054;SDS011;5580;50.106;8.702;2023-06-05T13:33:39;6.40;;;3.90;;
11054;SDS011;5580;50.106;8.702;2023-06-05T13:36:11;6.40;;;4.00;;
11054;SDS011;5580;50.106;8.702;2023-06-05T13:38:36;6.20;;;4.07;;
11054;SDS011;5580;50.106;8.702;2023-06-05T13:41:02;6.13;;;4.07;;
11054;SDS011;5580;50.106;8.702;2023-06-05T13:43:28;6.53;;;3.93;;
11054;SDS011;5580;50.106;8.702;2023-06-05T13:45:54;7.03;;;4.10;;
11054;SDS011;5580;50.106;8.702;2023-06-05T13:48:20;6.37;;;4.00;;
11054;SDS011;5580;50.106;8.702;2023-06-05T13:50:45;5.30;;;3.80;;
11054;SDS011;5580;50.106;8.702;2023-06-05T13:53:11;9.03;;;4.20;;
11054;SDS011;5580;50.106;8.702;2023-06-05T13:55:36;5.30;;;4.10;;
11054;SDS011;5580;50.106;8.702;2023-06-05T13:58:04;6.20;;;3.70;;
11054;SDS011;5580;50.106;8.702;2023-06-05T14:00:30;6.27;;;4.00;;
11054;SDS011;5580;50.106;8.702;2023-06-05T14:02:56;6.43;;;4.07;;
11054;SDS011;5580;50.106;8.702;2023-06-05T14:05:23;6.60;;;4.07;;
11054;SDS011;5580;50.106;8.702;2023-06-05T14:07:50;7.63;;;4.27;;
11054;SDS011;5580;50.106;8.702;2023-06-05T14:10:20;8.03;;;4.20;;
11054;SDS011;5580;50.106;8.702;2023-06-05T14:12:48;7.00;;;4.10;;
11054;SDS011;5580;50.106;8.702;2023-06-05T14:15:15;9.27;;;3.77;;
11054;SDS011;5580;50.106;8.702;2023-06-05T14:17:45;7.00;;;4.10;;
11054;SDS011;5580;50.106;8.702;2023-06-05T14:20:12;7.17;;;4.00;;
11054;SDS011;5580;50.106;8.702;2023-06-05T14:22:38;7.57;;;3.80;;
11054;SDS011;5580;50.106;8.702;2023-06-05T14:25:04;4.30;;;3.90;;
11054;SDS011;5580;50.106;8.702;2023-06-05T14:27:31;6.03;;;3.90;;
11054;SDS011;5580;50.106;8.702;2023-06-05T14:29:56;8.07;;;4.10;;
11054;SDS011;5580;50.106;8.702;2023-06-05T14:32:22;6.00;;;3.97;;
11054;SDS011;5580;50.106;8.702;2023-06-05T14:34:47;6.80;;;4.10;;
11054;SDS011;5580;50.106;8.702;2023-06-05T14:37:13;5.83;;;3.90;;
11054;SDS011;5580;50.106;8.702;2023-06-05T14:39:39;9.03;;;4.20;;
11054;SDS011;5580;50.106;8.702;2023-06-05T14:42:04;8.93;;;4.43;;
11054;SDS011;5580;50.106;8.702;2023-06-05T14:44:31;5.57;;;4.10;;
11054;SDS011;5580;50.106;8.702;2023-06-05T14:46:56;9.23;;;4.10;;
11054;SDS011;5580;50.106;8.702;2023-06-05T14:49:23;5.33;;;3.73;;
11054;SDS011;5580;50.106;8.702;2023-06-05T14:51:49;6.90;;;4.10;;
11054;SDS011;5580;50.106;8.702;2023-06-05T14:54:14;6.63;;;4.00;;
11054;SDS011;5580;50.106;8.702;2023-06-05T14:56:40;6.20;;;3.93;;
11054;SDS011;5580;50.106;8.702;2023-06-05T14:59:05;5.70;;;4.23;;
11054;SDS011;5580;50.106;8.702;2023-06-05T15:01:31;7.97;;;4.27;;
11054;SDS011;5580;50.106;8.702;2023-06-05T15:03:57;7.23;;;4.03;;
11054;SDS011;5580;50.106;8.702;2023-06-05T15:06:22;8.40;;;4.50;;
11054;SDS011;5580;50.106;8.702;2023-06-05T15:08:48;6.07;;;3.90;;
11054;SDS011;5580;50.106;8.702;2023-06-05T15:11:13;6.27;;;4.30;;
11054;SDS011;5580;50.106;8.702;2023-06-05T15:13:39;6.67;;;3.97;;
11054;SDS011;5580;50.106;8.702;2023-06-05T15:16:05;7.90;;;4.20;;
11054;SDS011;5580;50.106;8.702;2023-06-05T15:18:30;7.80;;;4.43;;
11054;SDS011;5580;50.106;8.702;2023-06-05T15:20:56;5.70;;;3.70;;
11054;SDS011;5580;50.106;8.702;2023-06-05T15:23:21;6.47;;;3.90;;